Time;durP1;ratioP1;P1;durP2;ratioP2;P2;SDS_P1;SDS_P2;PMS_P1;PMS_P2;Temp;Humidity;BMP_temperature;BMP_pressure;BME280_temperature;BME280_humidity;BME280_pressure;Samples;Min_cycle;Max_cycle;Signal;HPM_P1;HPM_P2
2022/07/02 00:02:24;;;;;;;5.18;1.50;;;;;;;;;;5003735;28;20029;-79
2022/07/02 00:04:59;;;;;;;3.67;1.40;;;;;;;;;;5002951;28;20034;-78
2022/07/02 00:07:26;;;;;;;3.30;1.40;;;;;;;;;;5002919;28;20057;-78
2022/07/02 00:09:56;;;;;;;2.83;1.33;;;;;;;;;;5001722;28;20276;-79
2022/07/02 00:12:23;;;;;;;2.53;1.40;;;;;;;;;;5002178;28;20026;-78
2022/07/02 00:14:53;;;;;;;2.35;1.40;;;;;;;;;;5002316;28;20034;-78
2022/07/02 00:17:19;;;;;;;3.95;1.60;;;;;;;;;;5002540;28;20359;-78
2022/07/02 00:19:44;;;;;;;4.07;1.77;;;;;;;;;;5002620;28;20233;-79
2022/07/02 00:22:10;;;;;;;3.25;1.30;;;;;;;;;;5003182;28;20377;-78
2022/07/02 00:24:40;;;;;;;3.67;1.45;;;;;;;;;;5003315;28;20088;-79
2022/07/02 00:27:08;;;;;;;2.60;1.30;;;;;;;;;;5003263;28;20090;-78
2022/07/02 00:29:39;;;;;;;2.20;1.20;;;;;;;;;;5002469;28;20224;-79
2022/07/02 00:32:05;;;;;;;2.67;1.40;;;;;;;;;;5001401;28;20034;-80
2022/07/02 00:34:32;;;;;;;3.42;1.35;;;;;;;;;;5002095;28;20268;-80
2022/07/02 00:36:57;;;;;;;3.13;1.38;;;;;;;;;;5002408;28;20305;-79
2022/07/02 00:39:23;;;;;;;4.97;1.65;;;;;;;;;;5002904;28;20034;-79
2022/07/02 00:41:49;;;;;;;4.25;1.60;;;;;;;;;;4985644;28;20026;-79
2022/07/02 00:44:17;;;;;;;7.00;1.80;;;;;;;;;;5002604;28;20322;-80
2022/07/02 00:46:44;;;;;;;4.28;1.77;;;;;;;;;;5003085;28;20053;-79
2022/07/02 00:49:12;;;;;;;6.18;1.75;;;;;;;;;;5002794;28;20221;-78
2022/07/02 00:51:38;;;;;;;3.17;1.50;;;;;;;;;;5002784;28;20034;-79
2022/07/02 00:54:04;;;;;;;6.15;1.58;;;;;;;;;;5002885;28;20102;-79
2022/07/02 00:56:29;;;;;;;6.00;1.80;;;;;;;;;;5002733;28;20026;-79
2022/07/02 00:58:55;;;;;;;6.38;1.70;;;;;;;;;;5002484;28;20076;-78
2022/07/02 01:01:21;;;;;;;5.05;1.40;;;;;;;;;;5002397;28;20033;-80
2022/07/02 01:03:49;;;;;;;4.20;1.80;;;;;;;;;;5002476;28;20038;-79
2022/07/02 01:06:17;;;;;;;3.97;1.75;;;;;;;;;;5002644;28;20336;-79
2022/07/02 01:11:30;;;;;;;5.85;1.77;;;;;;;;;;5002238;28;20107;-77
2022/07/02 01:13:57;;;;;;;4.15;1.60;;;;;;;;;;5001864;28;20050;-79
2022/07/02 01:16:23;;;;;;;4.47;1.70;;;;;;;;;;5001353;28;20059;-79
2022/07/02 01:18:50;;;;;;;7.50;1.60;;;;;;;;;;5001528;28;20070;-79
2022/07/02 01:21:15;;;;;;;3.78;1.60;;;;;;;;;;5001835;28;20065;-79
2022/07/02 01:23:41;;;;;;;4.60;1.38;;;;;;;;;;5001788;28;20261;-79
2022/07/02 01:26:06;;;;;;;4.68;1.85;;;;;;;;;;5000990;28;20034;-79
2022/07/02 01:28:31;;;;;;;2.95;1.70;;;;;;;;;;5000513;28;20056;-79
2022/07/02 01:30:57;;;;;;;6.13;1.50;;;;;;;;;;5000257;28;20086;-78
2022/07/02 01:33:23;;;;;;;5.07;1.80;;;;;;;;;;5001015;28;20094;-80
2022/07/02 01:35:49;;;;;;;6.95;1.73;;;;;;;;;;5000674;28;20191;-80
2022/07/02 01:38:14;;;;;;;3.17;1.63;;;;;;;;;;5001514;28;20318;-78
2022/07/02 01:40:39;;;;;;;5.38;1.90;;;;;;;;;;5001132;28;20282;-80
2022/07/02 01:43:05;;;;;;;5.28;1.50;;;;;;;;;;5000360;28;20090;-79
2022/07/02 01:45:30;;;;;;;4.30;1.60;;;;;;;;;;5001311;28;20313;-78
2022/07/02 01:47:56;;;;;;;4.13;1.90;;;;;;;;;;4984763;28;20033;-80
2022/07/02 01:50:21;;;;;;;4.70;1.80;;;;;;;;;;5001852;28;20030;-80
2022/07/02 01:52:46;;;;;;;3.25;1.92;;;;;;;;;;5001766;28;20034;-79
2022/07/02 01:55:12;;;;;;;3.85;1.60;;;;;;;;;;5000986;28;20030;-79
2022/07/02 01:57:37;;;;;;;5.07;1.63;;;;;;;;;;4983862;28;20032;-79
2022/07/02 02:00:06;;;;;;;4.35;1.80;;;;;;;;;;5001552;28;20917;-78
2022/07/02 02:02:32;;;;;;;4.00;1.60;;;;;;;;;;5001633;28;20038;-79
2022/07/02 02:04:57;;;;;;;3.42;1.80;;;;;;;;;;5001517;28;20058;-78
2022/07/02 02:07:22;;;;;;;4.45;1.92;;;;;;;;;;4984338;28;20042;-79
2022/07/02 02:09:48;;;;;;;3.40;1.80;;;;;;;;;;4983191;28;20054;-79
2022/07/02 02:12:13;;;;;;;3.45;1.70;;;;;;;;;;5001332;28;20029;-79
2022/07/02 02:14:39;;;;;;;5.40;1.80;;;;;;;;;;5001481;28;20034;-79
2022/07/02 02:17:05;;;;;;;6.70;2.00;;;;;;;;;;5001388;28;20033;-80
2022/07/02 02:19:30;;;;;;;5.30;1.77;;;;;;;;;;5001050;28;20097;-79
2022/07/02 02:21:56;;;;;;;4.70;1.48;;;;;;;;;;5000903;28;20030;-79
2022/07/02 02:24:22;;;;;;;3.55;1.63;;;;;;;;;;5000100;28;20089;-79
2022/07/02 02:26:47;;;;;;;7.38;1.80;;;;;;;;;;5000114;28;20037;-79
2022/07/02 02:29:12;;;;;;;6.03;1.70;;;;;;;;;;4999731;28;20030;-80
2022/07/02 02:31:38;;;;;;;2.83;1.40;;;;;;;;;;5000315;28;20034;-78
2022/07/02 02:34:03;;;;;;;2.85;1.40;;;;;;;;;;4982762;28;20313;-79
2022/07/02 02:36:29;;;;;;;4.30;1.67;;;;;;;;;;5000180;28;20080;-79
2022/07/02 02:38:54;;;;;;;4.13;1.27;;;;;;;;;;5001670;28;20037;-79
2022/07/02 02:41:20;;;;;;;3.38;1.52;;;;;;;;;;5001518;28;20057;-79
2022/07/02 02:43:46;;;;;;;5.35;1.65;;;;;;;;;;5001307;28;20034;-79
2022/07/02 02:46:11;;;;;;;3.85;1.50;;;;;;;;;;5000674;28;20043;-77
2022/07/02 02:48:37;;;;;;;6.15;1.80;;;;;;;;;;5000844;28;20022;-79
2022/07/02 02:51:05;;;;;;;5.55;1.60;;;;;;;;;;5001279;28;20031;-80
2022/07/02 02:53:31;;;;;;;3.90;1.40;;;;;;;;;;5002128;28;20360;-78
2022/07/02 02:55:58;;;;;;;3.50;1.60;;;;;;;;;;5005015;28;20097;-79
2022/07/02 02:58:24;;;;;;;5.30;1.70;;;;;;;;;;4998409;28;20026;-76
2022/07/02 03:00:49;;;;;;;5.25;1.45;;;;;;;;;;4993322;28;20030;-76
2022/07/02 03:03:15;;;;;;;4.88;1.70;;;;;;;;;;4993377;28;20034;-78
2022/07/02 03:05:40;;;;;;;3.25;1.58;;;;;;;;;;4982736;28;20065;-74
2022/07/02 03:08:06;;;;;;;2.80;1.55;;;;;;;;;;5004269;28;20026;-74
2022/07/02 03:10:31;;;;;;;4.75;1.63;;;;;;;;;;5004087;28;20026;-74
2022/07/02 03:12:56;;;;;;;3.75;1.67;;;;;;;;;;5004574;28;20026;-74
2022/07/02 03:15:22;;;;;;;3.25;1.60;;;;;;;;;;5004460;28;20050;-74
2022/07/02 03:17:47;;;;;;;3.13;1.70;;;;;;;;;;5004608;28;20026;-74
2022/07/02 03:20:13;;;;;;;6.45;1.80;;;;;;;;;;5004445;28;20072;-74
2022/07/02 03:22:38;;;;;;;5.03;1.60;;;;;;;;;;5004316;28;20048;-75
2022/07/02 03:25:04;;;;;;;4.53;1.58;;;;;;;;;;5004398;28;20030;-76
2022/07/02 03:27:30;;;;;;;4.75;1.60;;;;;;;;;;5003412;28;20034;-76
2022/07/02 03:29:56;;;;;;;3.20;1.80;;;;;;;;;;5003169;28;20038;-75
2022/07/02 03:32:25;;;;;;;3.35;1.60;;;;;;;;;;5002858;28;20037;-75
2022/07/02 03:34:52;;;;;;;4.78;1.77;;;;;;;;;;5003691;28;20333;-75
2022/07/02 03:37:17;;;;;;;5.80;1.88;;;;;;;;;;5004152;28;20033;-78
2022/07/02 03:39:43;;;;;;;3.08;1.40;;;;;;;;;;5004146;28;20026;-75
2022/07/02 03:42:09;;;;;;;4.07;1.80;;;;;;;;;;5004073;28;20245;-76
2022/07/02 03:44:35;;;;;;;3.88;1.73;;;;;;;;;;5003923;28;20033;-77
2022/07/02 03:47:00;;;;;;;5.80;2.17;;;;;;;;;;5004092;28;20098;-76
2022/07/02 03:49:26;;;;;;;4.78;1.73;;;;;;;;;;5003472;28;20026;-77
2022/07/02 03:51:52;;;;;;;5.40;1.52;;;;;;;;;;5003438;28;20030;-74
2022/07/02 03:54:17;;;;;;;4.80;1.60;;;;;;;;;;5003932;28;20198;-75
2022/07/02 03:56:42;;;;;;;3.97;1.73;;;;;;;;;;5003887;28;20026;-74
2022/07/02 03:59:08;;;;;;;3.35;1.70;;;;;;;;;;5003379;28;20053;-77
2022/07/02 04:01:33;;;;;;;3.05;1.50;;;;;;;;;;5003741;28;20022;-75
2022/07/02 04:03:59;;;;;;;4.43;1.83;;;;;;;;;;5003525;28;20041;-74
2022/07/02 04:06:24;;;;;;;6.65;1.77;;;;;;;;;;5002425;28;20030;-74
2022/07/02 04:08:49;;;;;;;4.57;1.70;;;;;;;;;;5002299;28;20034;-75
2022/07/02 04:11:15;;;;;;;4.32;1.55;;;;;;;;;;5001737;28;20062;-74
2022/07/02 04:13:40;;;;;;;5.50;1.60;;;;;;;;;;5002531;28;20026;-76
2022/07/02 04:16:05;;;;;;;4.05;1.70;;;;;;;;;;5003066;28;20227;-76
2022/07/02 04:18:31;;;;;;;5.78;1.80;;;;;;;;;;5003108;28;20034;-75
2022/07/02 04:20:56;;;;;;;5.13;1.60;;;;;;;;;;5002860;28;20038;-76
2022/07/02 04:23:22;;;;;;;5.05;1.60;;;;;;;;;;5003524;28;20026;-76
2022/07/02 04:25:47;;;;;;;4.85;1.70;;;;;;;;;;5003134;28;20034;-76
2022/07/02 04:28:12;;;;;;;3.13;1.55;;;;;;;;;;5003063;28;20026;-76
2022/07/02 04:30:38;;;;;;;7.40;1.70;;;;;;;;;;5002457;28;20396;-79
2022/07/02 04:33:04;;;;;;;3.80;1.80;;;;;;;;;;5002766;28;20055;-76
2022/07/02 04:35:30;;;;;;;3.50;1.70;;;;;;;;;;5001980;28;20056;-75
2022/07/02 04:37:55;;;;;;;3.95;1.60;;;;;;;;;;4984822;28;20026;-75
2022/07/02 04:40:21;;;;;;;4.60;1.73;;;;;;;;;;5001814;28;20105;-75
2022/07/02 04:42:46;;;;;;;2.78;1.40;;;;;;;;;;5002346;28;20030;-74
2022/07/02 04:45:12;;;;;;;5.57;1.55;;;;;;;;;;5002761;28;20077;-77
2022/07/02 04:47:37;;;;;;;6.13;1.80;;;;;;;;;;5001246;28;20053;-77
2022/07/02 04:50:03;;;;;;;3.70;1.67;;;;;;;;;;5001724;28;20038;-75
2022/07/02 04:52:28;;;;;;;7.82;2.08;;;;;;;;;;5002331;28;20030;-75
2022/07/02 04:54:54;;;;;;;4.57;1.50;;;;;;;;;;4985448;28;20037;-75
2022/07/02 04:57:19;;;;;;;5.68;1.52;;;;;;;;;;5003188;28;20328;-76
2022/07/02 04:59:45;;;;;;;7.07;1.80;;;;;;;;;;5003177;28;20218;-78
2022/07/02 05:02:13;;;;;;;6.25;1.80;;;;;;;;;;5003078;28;20352;-75
2022/07/02 05:04:39;;;;;;;4.28;2.00;;;;;;;;;;5002893;28;20030;-75
2022/07/02 05:07:05;;;;;;;4.63;1.77;;;;;;;;;;5003456;28;20034;-76
2022/07/02 05:09:31;;;;;;;4.10;1.58;;;;;;;;;;5003747;28;20073;-76
2022/07/02 05:11:56;;;;;;;5.47;1.85;;;;;;;;;;4986355;28;20068;-77
2022/07/02 05:14:22;;;;;;;6.38;1.60;;;;;;;;;;5003639;28;20030;-75
2022/07/02 05:16:47;;;;;;;3.35;1.63;;;;;;;;;;5002511;28;20065;-75
2022/07/02 05:19:13;;;;;;;3.75;1.83;;;;;;;;;;5003606;28;20034;-78
2022/07/02 05:21:40;;;;;;;8.30;1.70;;;;;;;;;;5003210;28;20026;-77
2022/07/02 05:24:05;;;;;;;6.57;1.85;;;;;;;;;;4985708;28;20081;-78
2022/07/02 05:26:31;;;;;;;4.82;1.90;;;;;;;;;;5003148;28;20018;-75
2022/07/02 05:28:57;;;;;;;4.43;1.83;;;;;;;;;;5003175;28;20322;-78
2022/07/02 05:31:22;;;;;;;3.60;1.60;;;;;;;;;;5003866;28;20030;-77
2022/07/02 05:33:48;;;;;;;6.25;2.17;;;;;;;;;;5005069;28;20041;-77
2022/07/02 05:36:13;;;;;;;4.60;1.77;;;;;;;;;;5001836;28;20026;-77
2022/07/02 05:38:39;;;;;;;6.32;1.95;;;;;;;;;;5005766;28;20025;-77
2022/07/02 05:41:04;;;;;;;5.80;1.80;;;;;;;;;;5010930;28;20038;-77
2022/07/02 05:43:29;;;;;;;4.72;1.80;;;;;;;;;;5005127;28;20038;-77
2022/07/02 05:45:55;;;;;;;5.63;1.90;;;;;;;;;;5008755;28;20265;-77
2022/07/02 05:48:20;;;;;;;5.43;1.70;;;;;;;;;;5008218;28;20032;-77
2022/07/02 05:50:46;;;;;;;5.43;2.35;;;;;;;;;;5009349;28;20049;-77
2022/07/02 05:53:12;;;;;;;5.45;1.80;;;;;;;;;;5009554;28;20037;-76
2022/07/02 05:55:37;;;;;;;4.70;2.00;;;;;;;;;;5010641;28;20105;-77
2022/07/02 05:58:03;;;;;;;4.35;2.08;;;;;;;;;;5009077;28;20037;-76
2022/07/02 06:00:28;;;;;;;5.40;1.90;;;;;;;;;;5009622;28;20030;-77
2022/07/02 06:02:54;;;;;;;4.75;2.00;;;;;;;;;;5007823;28;20035;-76
2022/07/02 06:08:04;;;;;;;5.45;1.85;;;;;;;;;;5001781;28;20085;-77
2022/07/02 06:10:29;;;;;;;4.05;1.83;;;;;;;;;;5001950;28;20400;-76
2022/07/02 06:12:55;;;;;;;7.00;2.10;;;;;;;;;;5001795;28;20036;-77
2022/07/02 06:15:20;;;;;;;3.85;1.83;;;;;;;;;;5001826;28;20333;-76
2022/07/02 06:17:47;;;;;;;8.50;2.10;;;;;;;;;;5001999;28;20022;-76
2022/07/02 06:20:13;;;;;;;5.15;1.70;;;;;;;;;;5001942;28;20432;-76
2022/07/02 06:22:39;;;;;;;4.65;1.90;;;;;;;;;;5001635;28;20102;-77
2022/07/02 06:25:06;;;;;;;8.32;1.70;;;;;;;;;;5001152;28;20053;-77
2022/07/02 06:27:33;;;;;;;3.30;1.70;;;;;;;;;;5000845;28;20091;-76
2022/07/02 06:29:59;;;;;;;5.90;2.08;;;;;;;;;;5003277;28;20022;-76
2022/07/02 06:32:25;;;;;;;4.35;1.90;;;;;;;;;;5004352;28;20053;-76
2022/07/02 06:34:50;;;;;;;5.18;1.88;;;;;;;;;;5005416;28;20030;-77
2022/07/02 06:37:16;;;;;;;5.38;1.70;;;;;;;;;;5004865;28;20041;-75
2022/07/02 06:39:41;;;;;;;7.70;1.90;;;;;;;;;;5005161;28;20027;-76
2022/07/02 06:42:19;;;;;;;4.68;1.70;;;;;;;;;;5005339;28;20029;-75
2022/07/02 06:44:46;;;;;;;4.47;1.63;;;;;;;;;;5004949;28;20378;-75
2022/07/02 06:47:12;;;;;;;5.70;1.60;;;;;;;;;;5003652;28;20030;-75
2022/07/02 06:49:38;;;;;;;3.92;1.35;;;;;;;;;;4986116;28;20037;-75
2022/07/02 06:52:03;;;;;;;3.53;1.27;;;;;;;;;;5004507;28;20026;-77
2022/07/02 06:54:29;;;;;;;3.33;1.30;;;;;;;;;;5005098;28;20365;-75
2022/07/02 06:56:54;;;;;;;2.58;1.30;;;;;;;;;;5004257;28;20018;-75
2022/07/02 06:59:21;;;;;;;3.58;1.30;;;;;;;;;;5004318;28;20087;-77
2022/07/02 07:01:46;;;;;;;3.70;1.40;;;;;;;;;;5003998;28;20093;-76
2022/07/02 07:04:12;;;;;;;3.13;1.10;;;;;;;;;;5003455;28;20042;-76
2022/07/02 07:06:39;;;;;;;4.35;1.40;;;;;;;;;;5003796;28;20037;-76
2022/07/02 07:09:04;;;;;;;4.35;1.30;;;;;;;;;;5003499;28;20033;-76
2022/07/02 07:11:30;;;;;;;5.28;1.10;;;;;;;;;;5003783;28;20026;-75
2022/07/02 07:13:55;;;;;;;4.75;1.30;;;;;;;;;;5002924;28;20040;-76
2022/07/02 07:16:21;;;;;;;5.78;1.20;;;;;;;;;;5003894;28;20169;-75
2022/07/02 07:19:07;;;;;;;3.92;1.40;;;;;;;;;;5004502;28;20030;-75
2022/07/02 07:21:33;;;;;;;4.00;1.30;;;;;;;;;;5004226;28;20050;-76
2022/07/02 07:23:59;;;;;;;4.55;1.20;;;;;;;;;;5003443;28;20141;-77
2022/07/02 07:26:24;;;;;;;4.10;1.20;;;;;;;;;;5003212;28;20030;-75
2022/07/02 07:28:49;;;;;;;2.53;0.95;;;;;;;;;;5003539;28;20269;-78
2022/07/02 07:31:20;;;;;;;3.42;0.95;;;;;;;;;;5002828;28;20444;-75
2022/07/02 07:33:46;;;;;;;2.95;0.90;;;;;;;;;;4985770;28;20033;-75
2022/07/02 07:36:12;;;;;;;2.47;0.90;;;;;;;;;;5003167;28;20068;-77
2022/07/02 07:38:37;;;;;;;2.70;1.10;;;;;;;;;;5003105;28;20030;-76
2022/07/02 07:41:02;;;;;;;2.45;0.90;;;;;;;;;;5002871;28;20030;-76
2022/07/02 07:43:28;;;;;;;3.67;0.90;;;;;;;;;;5002196;28;20313;-76
2022/07/02 07:45:54;;;;;;;2.95;0.90;;;;;;;;;;5003774;28;20221;-76
2022/07/02 07:48:19;;;;;;;2.13;0.80;;;;;;;;;;5003210;28;20069;-76
2022/07/02 07:50:44;;;;;;;4.60;1.00;;;;;;;;;;5004193;28;20026;-76
2022/07/02 07:53:10;;;;;;;2.97;0.90;;;;;;;;;;5003894;28;20321;-77
2022/07/02 07:55:35;;;;;;;1.90;0.80;;;;;;;;;;5003928;28;20313;-76
2022/07/02 07:58:01;;;;;;;2.97;1.00;;;;;;;;;;5003089;28;20077;-76
2022/07/02 08:00:27;;;;;;;3.95;0.98;;;;;;;;;;4985096;28;20030;-76
2022/07/02 08:02:52;;;;;;;1.85;0.88;;;;;;;;;;5002273;28;20351;-75
2022/07/02 08:05:18;;;;;;;2.40;1.05;;;;;;;;;;5003125;28;20038;-76
2022/07/02 08:07:43;;;;;;;3.20;1.10;;;;;;;;;;5002722;28;20030;-75
2022/07/02 08:10:12;;;;;;;5.28;1.10;;;;;;;;;;5002876;28;20035;-77
2022/07/02 08:12:40;;;;;;;2.83;0.95;;;;;;;;;;5003398;28;20089;-76
2022/07/02 08:15:06;;;;;;;4.18;1.23;;;;;;;;;;5002823;28;20041;-77
2022/07/02 08:17:31;;;;;;;4.07;1.00;;;;;;;;;;5003124;28;20045;-77
2022/07/02 08:19:57;;;;;;;5.50;0.93;;;;;;;;;;5003492;28;20030;-81
2022/07/02 08:22:23;;;;;;;4.40;0.90;;;;;;;;;;4986148;28;20085;-79
2022/07/02 08:24:48;;;;;;;3.25;0.90;;;;;;;;;;5003158;28;20044;-74
2022/07/02 08:27:14;;;;;;;3.20;0.95;;;;;;;;;;5003384;28;20025;-81
2022/07/02 08:29:40;;;;;;;1.90;1.00;;;;;;;;;;5003128;28;20029;-83
2022/07/02 08:32:06;;;;;;;3.92;1.10;;;;;;;;;;4999235;28;20038;-78
2022/07/02 08:34:31;;;;;;;5.65;1.02;;;;;;;;;;5013805;28;20041;-80
2022/07/02 08:36:57;;;;;;;3.83;1.00;;;;;;;;;;5004210;28;20027;-79
2022/07/02 08:39:23;;;;;;;7.60;1.30;;;;;;;;;;5022246;28;20097;-77
2022/07/02 08:41:49;;;;;;;3.53;1.10;;;;;;;;;;5015354;28;20029;-79
2022/07/02 08:44:16;;;;;;;1.58;0.90;;;;;;;;;;5000331;28;20392;-76
2022/07/02 08:46:42;;;;;;;3.88;0.90;;;;;;;;;;4998931;28;20116;-76
2022/07/02 08:49:08;;;;;;;4.93;1.10;;;;;;;;;;5000297;28;20421;-84
2022/07/02 08:51:34;;;;;;;5.88;1.08;;;;;;;;;;5001336;28;20073;-82
2022/07/02 08:54:00;;;;;;;2.15;1.00;;;;;;;;;;5000782;28;20034;-79
2022/07/02 08:56:27;;;;;;;1.48;0.80;;;;;;;;;;5002115;28;20042;-81
2022/07/02 08:58:53;;;;;;;2.47;0.90;;;;;;;;;;5001735;28;20030;-81
2022/07/02 09:01:20;;;;;;;3.30;1.20;;;;;;;;;;5001331;28;20348;-79
2022/07/02 09:03:48;;;;;;;2.15;0.82;;;;;;;;;;4994912;28;20034;-79
2022/07/02 09:06:16;;;;;;;2.50;0.80;;;;;;;;;;4992684;28;20629;-81
2022/07/02 09:08:42;;;;;;;3.55;0.88;;;;;;;;;;4991363;28;20058;-78
2022/07/02 09:11:09;;;;;;;1.20;0.70;;;;;;;;;;4993498;28;20105;-78
2022/07/02 09:13:35;;;;;;;3.22;0.90;;;;;;;;;;4994237;28;20543;-79
2022/07/02 09:16:01;;;;;;;2.95;0.85;;;;;;;;;;4999444;28;20050;-78
2022/07/02 09:18:26;;;;;;;2.53;0.80;;;;;;;;;;5000967;28;20037;-78
2022/07/02 09:20:52;;;;;;;4.32;0.90;;;;;;;;;;5014546;28;20312;-77
2022/07/02 09:23:21;;;;;;;4.13;0.75;;;;;;;;;;4998675;28;20038;-77
2022/07/02 09:25:48;;;;;;;3.22;1.00;;;;;;;;;;4992803;28;20018;-78
2022/07/02 09:28:15;;;;;;;4.47;0.80;;;;;;;;;;4997845;28;20026;-79
2022/07/02 09:30:40;;;;;;;2.42;0.90;;;;;;;;;;5000439;28;20026;-76
2022/07/02 09:33:31;;;;;;;3.10;0.80;;;;;;;;;;4999605;28;20385;-78
2022/07/02 09:36:00;;;;;;;1.50;0.68;;;;;;;;;;5013457;28;20545;-82
2022/07/02 09:38:26;;;;;;;1.17;0.90;;;;;;;;;;5007691;28;20030;-77
2022/07/02 09:40:54;;;;;;;6.13;1.20;;;;;;;;;;5016162;28;20277;-77
2022/07/02 09:43:33;;;;;;;6.03;0.95;;;;;;;;;;5008904;28;20041;-76
2022/07/02 09:46:00;;;;;;;3.97;0.77;;;;;;;;;;5007278;28;20109;-76
2022/07/02 09:48:26;;;;;;;1.75;0.70;;;;;;;;;;5007385;28;20083;-76
2022/07/02 09:50:52;;;;;;;3.33;0.70;;;;;;;;;;5007469;28;20026;-76
2022/07/02 09:53:18;;;;;;;1.58;0.70;;;;;;;;;;5007261;28;20033;-75
2022/07/02 09:55:49;;;;;;;2.38;0.70;;;;;;;;;;5007826;28;20030;-76
2022/07/02 09:58:25;;;;;;;3.45;0.80;;;;;;;;;;5007371;28;20026;-76
2022/07/02 10:00:51;;;;;;;2.40;0.70;;;;;;;;;;5008572;28;20416;-76
2022/07/02 10:03:17;;;;;;;2.28;0.70;;;;;;;;;;5010754;28;20026;-75
2022/07/02 10:05:48;;;;;;;1.67;0.50;;;;;;;;;;5012785;28;20037;-76
2022/07/02 10:08:13;;;;;;;2.08;0.93;;;;;;;;;;5013130;28;20033;-76
2022/07/02 10:10:39;;;;;;;1.73;0.70;;;;;;;;;;4995341;28;20036;-75
2022/07/02 10:13:10;;;;;;;1.10;0.70;;;;;;;;;;5012675;28;20030;-76
2022/07/02 10:15:39;;;;;;;2.53;0.80;;;;;;;;;;5012268;28;20504;-76
2022/07/02 10:18:05;;;;;;;2.35;0.77;;;;;;;;;;4995020;28;20026;-76
2022/07/02 10:20:33;;;;;;;2.13;0.70;;;;;;;;;;5012684;28;20030;-76
2022/07/02 10:23:00;;;;;;;1.42;0.70;;;;;;;;;;5012415;28;20078;-77
2022/07/02 10:25:26;;;;;;;2.20;0.77;;;;;;;;;;5012567;28;20045;-76
2022/07/02 10:27:54;;;;;;;5.18;1.60;;;;;;;;;;5012761;28;20030;-76
2022/07/02 10:30:21;;;;;;;4.32;0.80;;;;;;;;;;5012099;28;20030;-77
2022/07/02 10:32:58;;;;;;;2.85;0.90;;;;;;;;;;5012494;28;20022;-77
2022/07/02 10:35:24;;;;;;;1.80;0.80;;;;;;;;;;5012314;28;20033;-76
2022/07/02 10:37:57;;;;;;;1.50;0.60;;;;;;;;;;5012376;28;20030;-75
2022/07/02 10:40:23;;;;;;;2.90;0.80;;;;;;;;;;5012336;28;20025;-75
2022/07/02 10:42:50;;;;;;;1.75;0.85;;;;;;;;;;5012277;28;20029;-76
2022/07/02 10:45:20;;;;;;;5.95;1.13;;;;;;;;;;5011925;28;20497;-77
2022/07/02 10:47:58;;;;;;;4.28;0.80;;;;;;;;;;5012380;28;20033;-77
2022/07/02 10:50:39;;;;;;;1.90;0.85;;;;;;;;;;5012174;28;20091;-77
2022/07/02 10:53:14;;;;;;;1.75;0.90;;;;;;;;;;5012143;28;20036;-76
2022/07/02 10:55:51;;;;;;;0.98;0.70;;;;;;;;;;5011829;28;20022;-77
2022/07/02 10:58:25;;;;;;;2.00;1.35;;;;;;;;;;5012091;28;20033;-77
2022/07/02 11:00:51;;;;;;;3.90;2.50;;;;;;;;;;5011851;28;20033;-75
2022/07/02 11:03:25;;;;;;;2.67;1.30;;;;;;;;;;5011953;28;20092;-75
2022/07/02 11:05:58;;;;;;;2.50;1.10;;;;;;;;;;5011986;28;20045;-76
2022/07/02 11:08:38;;;;;;;2.95;0.90;;;;;;;;;;5011871;28;20122;-76
2022/07/02 11:11:04;;;;;;;1.42;0.80;;;;;;;;;;5011840;28;20421;-76
2022/07/02 11:13:50;;;;;;;2.83;0.80;;;;;;;;;;5011204;28;20040;-77
2022/07/02 11:16:39;;;;;;;1.90;0.77;;;;;;;;;;5011466;28;20585;-77
2022/07/02 11:19:14;;;;;;;1.98;0.80;;;;;;;;;;5011885;28;20105;-76
2022/07/02 11:21:40;;;;;;;1.40;0.75;;;;;;;;;;5011619;28;20034;-76
2022/07/02 11:24:07;;;;;;;3.22;0.70;;;;;;;;;;5011514;28;20049;-77
2022/07/02 11:26:33;;;;;;;1.70;0.80;;;;;;;;;;5011620;28;20038;-77
2022/07/02 11:29:04;;;;;;;3.13;0.80;;;;;;;;;;5011113;28;20044;-77
2022/07/02 11:31:31;;;;;;;1.98;0.80;;;;;;;;;;4993446;28;20509;-75
2022/07/02 11:33:57;;;;;;;2.72;0.90;;;;;;;;;;5011408;28;20036;-75
2022/07/02 11:36:24;;;;;;;3.67;0.80;;;;;;;;;;5011544;28;20101;-75
2022/07/02 11:38:51;;;;;;;2.95;0.90;;;;;;;;;;5011461;28;20040;-74
2022/07/02 11:41:29;;;;;;;1.98;0.70;;;;;;;;;;5011290;28;20026;-77
2022/07/02 11:43:58;;;;;;;1.60;0.70;;;;;;;;;;5010708;28;20467;-74
2022/07/02 11:46:28;;;;;;;2.73;0.80;;;;;;;;;;5011221;28;20037;-76
2022/07/02 11:48:56;;;;;;;1.60;0.70;;;;;;;;;;5011357;28;20320;-76
2022/07/02 11:51:22;;;;;;;4.15;0.70;;;;;;;;;;5011183;28;20516;-76
2022/07/02 11:54:00;;;;;;;1.42;0.70;;;;;;;;;;5010999;28;20030;-75
2022/07/02 11:56:27;;;;;;;2.08;0.90;;;;;;;;;;5011151;28;20096;-75
2022/07/02 11:58:53;;;;;;;2.25;0.90;;;;;;;;;;4992785;28;20104;-75
2022/07/02 12:01:26;;;;;;;1.30;0.80;;;;;;;;;;5010607;28;20026;-75
2022/07/02 12:03:56;;;;;;;1.33;0.80;;;;;;;;;;5010626;28;20612;-75
2022/07/02 12:06:24;;;;;;;1.65;0.70;;;;;;;;;;5010659;28;20034;-76
2022/07/02 12:08:58;;;;;;;1.58;0.70;;;;;;;;;;5010634;28;20468;-75
2022/07/02 12:11:24;;;;;;;1.75;0.80;;;;;;;;;;5010856;28;20030;-75
2022/07/02 12:13:51;;;;;;;1.45;0.70;;;;;;;;;;5010218;28;20029;-75
2022/07/02 12:16:19;;;;;;;1.60;0.80;;;;;;;;;;5010332;28;20045;-76
2022/07/02 12:19:05;;;;;;;1.48;0.68;;;;;;;;;;5010597;28;20030;-76
2022/07/02 12:21:37;;;;;;;5.30;0.90;;;;;;;;;;5010668;28;20053;-76
2022/07/02 12:24:25;;;;;;;1.63;0.73;;;;;;;;;;5010207;28;20030;-78
2022/07/02 12:26:58;;;;;;;3.33;0.90;;;;;;;;;;5001691;28;20088;-75
2022/07/02 12:32:15;;;;;;;2.63;0.77;;;;;;;;;;5010727;28;20120;-76
2022/07/02 12:34:46;;;;;;;2.83;0.60;;;;;;;;;;4992198;28;20022;-76
2022/07/02 12:37:29;;;;;;;1.58;0.75;;;;;;;;;;5010051;28;20021;-75
2022/07/02 12:39:58;;;;;;;1.48;0.63;;;;;;;;;;5010183;28;20026;-76
2022/07/02 12:42:25;;;;;;;2.35;0.80;;;;;;;;;;5010305;28;20022;-76
2022/07/02 12:44:55;;;;;;;4.10;0.80;;;;;;;;;;4991650;28;20041;-76
2022/07/02 12:47:25;;;;;;;1.27;0.70;;;;;;;;;;5010065;28;20030;-78
2022/07/02 12:49:56;;;;;;;3.85;0.80;;;;;;;;;;5010039;28;20034;-77
2022/07/02 12:52:21;;;;;;;2.60;0.70;;;;;;;;;;5009925;28;20108;-78
2022/07/02 12:54:47;;;;;;;2.17;0.90;;;;;;;;;;5009703;28;20113;-76
2022/07/02 12:57:14;;;;;;;2.33;0.70;;;;;;;;;;5009857;28;20033;-77
2022/07/02 12:59:40;;;;;;;1.58;0.70;;;;;;;;;;5009384;28;20141;-77
2022/07/02 13:02:08;;;;;;;3.10;0.70;;;;;;;;;;5009859;28;20402;-76
2022/07/02 13:04:34;;;;;;;0.90;0.60;;;;;;;;;;5009742;28;20623;-75
2022/07/02 13:06:59;;;;;;;6.00;0.85;;;;;;;;;;5009661;28;20112;-76
2022/07/02 13:09:24;;;;;;;2.08;0.80;;;;;;;;;;5009726;28;20028;-76
2022/07/02 13:11:50;;;;;;;4.07;0.80;;;;;;;;;;5009694;28;20029;-76
2022/07/02 13:14:15;;;;;;;1.85;0.70;;;;;;;;;;5009064;28;20030;-76
2022/07/02 13:16:41;;;;;;;2.35;0.52;;;;;;;;;;5009338;28;20096;-75
2022/07/02 13:19:07;;;;;;;1.65;0.60;;;;;;;;;;5009621;28;20124;-75
2022/07/02 13:21:32;;;;;;;2.08;0.63;;;;;;;;;;5009766;28;20034;-76
2022/07/02 13:23:58;;;;;;;0.80;0.60;;;;;;;;;;5009299;28;20117;-75
2022/07/02 13:26:24;;;;;;;3.50;0.60;;;;;;;;;;5009167;28;20477;-77
2022/07/02 13:28:49;;;;;;;2.72;0.80;;;;;;;;;;5009065;28;20030;-78
2022/07/02 13:31:16;;;;;;;1.42;0.70;;;;;;;;;;5009358;28;20437;-78
2022/07/02 13:33:42;;;;;;;1.75;0.75;;;;;;;;;;5009217;28;20378;-78
2022/07/02 13:36:07;;;;;;;1.92;0.70;;;;;;;;;;5009353;28;20029;-77
2022/07/02 13:38:32;;;;;;;2.00;0.70;;;;;;;;;;5009450;28;20033;-80
2022/07/02 13:40:58;;;;;;;1.52;0.50;;;;;;;;;;5009726;28;20380;-77
2022/07/02 13:43:23;;;;;;;1.33;0.60;;;;;;;;;;5009356;28;20026;-78
2022/07/02 13:45:49;;;;;;;1.80;0.70;;;;;;;;;;5008760;28;20060;-79
2022/07/02 13:48:14;;;;;;;1.95;0.80;;;;;;;;;;5009406;28;20515;-76
2022/07/02 13:50:40;;;;;;;1.55;0.70;;;;;;;;;;5009080;28;20026;-77
2022/07/02 13:53:05;;;;;;;2.15;0.80;;;;;;;;;;5009320;28;20080;-78
2022/07/02 13:55:31;;;;;;;2.38;0.75;;;;;;;;;;5009108;28;20037;-75
2022/07/02 13:57:56;;;;;;;2.10;0.80;;;;;;;;;;5008957;28;20362;-76
2022/07/02 14:00:22;;;;;;;1.85;0.60;;;;;;;;;;5008838;28;20073;-79
2022/07/02 14:02:47;;;;;;;5.25;0.60;;;;;;;;;;5009073;28;20084;-79
2022/07/02 14:05:13;;;;;;;1.48;0.75;;;;;;;;;;5008638;28;20033;-78
2022/07/02 14:07:38;;;;;;;2.58;0.70;;;;;;;;;;5008910;28;20037;-79
2022/07/02 14:10:04;;;;;;;2.35;0.50;;;;;;;;;;5009244;28;20053;-78
2022/07/02 14:12:30;;;;;;;2.28;0.60;;;;;;;;;;5009065;28;20034;-78
2022/07/02 14:14:55;;;;;;;2.53;0.68;;;;;;;;;;4990761;28;20026;-79
2022/07/02 14:17:20;;;;;;;1.05;0.52;;;;;;;;;;5009062;28;20026;-77
2022/07/02 14:19:46;;;;;;;3.80;0.98;;;;;;;;;;5009110;28;20022;-79
2022/07/02 14:22:14;;;;;;;7.50;1.10;;;;;;;;;;5008992;28;20647;-76
2022/07/02 15:26:00;;;;;;;3.47;1.00;;;;;;;;;;5062578;28;20406;-76
2022/07/02 15:28:32;;;;;;;1.67;0.85;;;;;;;;;;5062868;28;20302;-77
2022/07/02 15:30:59;;;;;;;1.58;0.70;;;;;;;;;;5063714;28;20024;-78
2022/07/02 15:33:29;;;;;;;2.13;0.65;;;;;;;;;;5063993;28;20451;-79
2022/07/02 15:35:55;;;;;;;1.73;0.80;;;;;;;;;;5063548;28;20028;-76
2022/07/02 15:38:24;;;;;;;1.10;0.70;;;;;;;;;;5062346;28;20520;-78
2022/07/02 15:40:50;;;;;;;3.40;0.70;;;;;;;;;;5062445;28;20043;-76
2022/07/02 15:43:16;;;;;;;2.50;0.80;;;;;;;;;;5063765;28;20437;-80
2022/07/02 15:45:42;;;;;;;1.08;0.60;;;;;;;;;;5063516;28;20503;-78
2022/07/02 15:48:11;;;;;;;2.30;0.63;;;;;;;;;;5063764;28;20078;-78
2022/07/02 15:50:36;;;;;;;2.28;0.70;;;;;;;;;;5063519;28;20033;-80
2022/07/02 15:53:06;;;;;;;1.27;0.63;;;;;;;;;;5062206;28;20058;-79